Aviation Digital Data Service (ADDS)

Output produced by METARs form (1006 UTC 23 October 2017)
found at http://aviationweather.gov/adds/metars/
 
KBVI 230520Z 2306/2406 14004KT P6SM BKN100 
     FM231600 15015G25KT P6SM -SHRA BKN050 
     FM232300 16012G20KT 4SM RA OVC015 AMD NOT SKED